Time;durP1;ratioP1;P1;durP2;ratioP2;P2;SDS_P1;SDS_P2;PMS_P1;PMS_P2;Temp;Humidity;BMP_temperature;BMP_pressure;BME280_temperature;BME280_humidity;BME280_pressure;Samples;Min_cycle;Max_cycle;Signal;HPM_P1;HPM_P2
2022/06/11 07:58:55;;;;;;;15.52;4.45;;;;;;;17.55;69.60;102090.16;5233195;27;1893688;-68
2022/06/11 08:01:26;;;;;;;13.75;5.57;;;;;;;17.75;69.90;102106.63;5300172;28;20024;-70
2022/06/11 08:03:58;;;;;;;16.95;5.70;;;;;;;17.85;69.40;102110.44;5300472;28;20621;-71
2022/06/11 08:06:31;;;;;;;12.88;4.70;;;;;;;18.00;69.15;102112.94;5296846;28;20434;-70
2022/06/11 08:09:05;;;;;;;23.05;5.70;;;;;;;18.08;68.71;102108.59;5290514;28;20029;-70
2022/06/11 08:11:36;;;;;;;14.48;4.32;;;;;;;18.23;68.48;102111.09;5279069;28;20352;-69
2022/06/11 08:14:09;;;;;;;11.60;5.40;;;;;;;18.34;67.56;102118.16;5290607;28;20029;-69
2022/06/11 08:16:43;;;;;;;17.35;5.07;;;;;;;18.41;68.17;102115.78;5299783;28;20032;-71
2022/06/11 08:19:15;;;;;;;9.63;4.78;;;;;;;18.42;67.05;102108.19;5294907;28;20112;-71
2022/06/11 08:21:46;;;;;;;15.27;4.80;;;;;;;18.39;67.01;102114.44;5304636;28;20103;-71
2022/06/11 08:24:20;;;;;;;17.60;5.32;;;;;;;18.34;66.78;102123.78;5298374;28;20025;-69
2022/06/11 08:26:51;;;;;;;26.67;14.63;;;;;;;18.43;67.32;102124.72;5279163;28;20051;-69
2022/06/11 08:29:22;;;;;;;16.98;5.10;;;;;;;18.46;66.18;102114.84;5280275;28;20029;-69
2022/06/11 08:31:54;;;;;;;12.30;5.05;;;;;;;18.42;66.78;102113.78;5296597;28;20036;-69
2022/06/11 08:34:25;;;;;;;13.63;6.53;;;;;;;18.48;67.91;102123.75;5291264;28;20025;-69
2022/06/11 08:36:56;;;;;;;19.70;5.80;;;;;;;18.60;66.87;102124.06;5282397;28;20025;-69
2022/06/11 08:39:28;;;;;;;13.55;4.68;;;;;;;18.79;66.88;102135.25;5299387;28;20028;-69
2022/06/11 08:41:59;;;;;;;16.55;4.90;;;;;;;18.97;65.33;102113.75;5321138;28;20463;-69
2022/06/11 08:44:37;;;;;;;14.32;4.90;;;;;;;19.09;65.16;102116.00;5302876;28;20360;-68
2022/06/11 08:47:15;;;;;;;18.58;5.45;;;;;;;19.19;63.55;102121.38;5296470;28;20421;-70
2022/06/11 08:49:51;;;;;;;18.80;5.07;;;;;;;19.25;62.24;102124.91;5292902;28;20025;-70
2022/06/11 08:52:29;;;;;;;20.05;9.30;;;;;;;19.34;61.95;102123.00;5290362;28;20490;-69
2022/06/11 08:55:00;;;;;;;13.85;4.75;;;;;;;19.20;60.00;102122.22;5287692;28;20036;-69
2022/06/11 08:57:57;;;;;;;16.30;5.25;;;;;;;19.24;60.32;102118.44;5291498;28;20503;-69
2022/06/11 09:00:49;;;;;;;17.02;4.75;;;;;;;19.28;61.40;102124.28;5278384;28;20096;-70
2022/06/11 09:03:36;;;;;;;15.02;5.25;;;;;;;19.21;61.58;102127.53;5278667;28;20082;-68
2022/06/11 09:06:19;;;;;;;15.70;4.85;;;;;;;19.26;62.37;102130.22;5297153;28;20024;-67
2022/06/11 09:09:19;;;;;;;17.10;5.55;;;;;;;19.32;61.68;102134.56;5299023;28;20037;-67
2022/06/11 09:11:53;;;;;;;15.50;4.50;;;;;;;19.37;60.65;102130.81;5278162;28;20064;-68
2022/06/11 09:14:27;;;;;;;15.50;4.78;;;;;;;19.30;60.96;102124.78;5283065;28;20016;-68
2022/06/11 09:17:08;;;;;;;17.98;5.57;;;;;;;19.15;60.53;102119.53;5264228;28;20052;-66
2022/06/11 09:20:02;;;;;;;18.30;5.35;;;;;;;19.28;61.75;102124.28;5274476;28;20024;-68
2022/06/11 09:22:55;;;;;;;41.88;8.20;;;;;;;19.28;62.93;102127.09;5275644;28;20021;-69
2022/06/11 09:25:52;;;;;;;15.25;5.28;;;;;;;19.27;61.34;102128.22;5263248;28;20021;-67
2022/06/11 09:28:40;;;;;;;16.75;5.38;;;;;;;19.27;60.55;102122.59;5279996;28;20104;-67
2022/06/11 09:31:22;;;;;;;13.15;5.18;;;;;;;19.18;59.97;102116.09;5284697;28;20049;-67
2022/06/11 09:34:05;;;;;;;18.17;5.68;;;;;;;19.27;61.18;102119.78;5284739;28;20021;-67
2022/06/11 09:36:40;;;;;;;14.38;5.43;;;;;;;19.27;60.44;102117.00;5284660;28;20468;-68
2022/06/11 09:39:22;;;;;;;;;;;;;;;19.43;61.46;102131.50;5274941;28;20414;-67
2022/06/11 09:42:35;;;;;;;19.25;4.68;;;;;;;19.46;60.90;102128.06;5284231;28;20014;-67
2022/06/11 09:45:31;;;;;;;16.30;4.60;;;;;;;19.58;59.86;102121.84;5281680;28;20020;-67
2022/06/11 09:48:29;;;;;;;14.75;4.82;;;;;;;19.70;59.80;102122.16;5305331;28;20024;-67
2022/06/11 09:51:30;;;;;;;13.85;4.43;;;;;;;19.88;60.48;102123.91;5266560;28;20044;-70
2022/06/11 09:54:22;;;;;;;16.20;4.78;;;;;;;19.86;59.81;102126.22;5228429;28;20041;-70
2022/06/11 09:57:26;;;;;;;12.30;4.82;;;;;;;20.04;59.80;102127.13;5269770;28;20095;-70
2022/06/11 10:00:14;;;;;;;18.38;4.82;;;;;;;19.92;59.45;102115.66;5284578;28;20112;-71
2022/06/11 10:05:58;;;;;;;14.00;4.50;;;;;;;19.96;59.69;102109.03;5271108;28;20024;-71
2022/06/11 10:08:53;;;;;;;12.95;4.30;;;;;;;20.11;56.14;102115.41;5284282;28;20033;-71
2022/06/11 10:11:44;;;;;;;9.98;3.17;;;;;;;20.17;54.68;102122.56;5284396;28;20497;-70
2022/06/11 10:14:43;;;;;;;13.75;4.00;;;;;;;20.17;53.72;102129.03;5277861;28;20027;-69
2022/06/11 10:17:20;;;;;;;14.18;4.40;;;;;;;20.08;53.94;102118.88;5274637;28;20032;-70
2022/06/11 10:20:27;;;;;;;13.27;4.32;;;;;;;20.15;55.53;102124.88;5281318;28;20029;-71
2022/06/11 10:23:12;;;;;;;14.20;4.72;;;;;;;20.31;56.33;102125.28;5261656;28;20028;-71
2022/06/11 10:25:51;;;;;;;12.63;4.25;;;;;;;20.31;52.84;102123.28;5281899;28;20526;-71
2022/06/11 10:28:43;;;;;;;22.38;11.07;;;;;;;20.51;54.59;102126.69;5280974;28;20043;-69
2022/06/11 10:31:25;;;;;;;14.70;4.07;;;;;;;20.57;54.52;102128.22;5272413;28;20114;-71
2022/06/11 10:34:15;;;;;;;14.50;5.80;;;;;;;20.49;52.67;102129.00;5262367;28;20036;-71
2022/06/11 10:37:15;;;;;;;11.65;3.97;;;;;;;20.69;54.03;102128.44;5261979;28;20040;-71
2022/06/11 10:40:09;;;;;;;9.70;3.47;;;;;;;20.78;50.58;102129.25;5262078;28;20112;-72
2022/06/11 10:43:16;;;;;;;13.50;4.25;;;;;;;20.78;51.11;102134.06;5262951;28;20100;-71
2022/06/11 10:45:48;;;;;;;10.63;3.45;;;;;;;20.80;51.50;102129.75;5267529;28;20036;-71
2022/06/11 10:48:22;;;;;;;12.52;4.30;;;;;;;20.80;51.70;102128.94;5282610;28;20039;-70
2022/06/11 10:51:06;;;;;;;10.88;4.30;;;;;;;20.80;52.58;102126.94;5283553;28;20468;-71
2022/06/11 10:53:50;;;;;;;8.70;3.03;;;;;;;20.98;52.38;102118.53;5282848;28;20075;-73
2022/06/11 10:56:34;;;;;;;13.40;4.00;;;;;;;20.98;52.20;102119.34;5278150;28;20020;-71
2022/06/11 10:59:17;;;;;;;27.17;21.25;;;;;;;20.99;51.78;102120.19;5263385;28;20389;-71
2022/06/11 11:02:15;;;;;;;17.17;8.57;;;;;;;21.23;51.97;102119.72;5270548;28;20021;-70
2022/06/11 11:05:00;;;;;;;12.75;4.20;;;;;;;21.26;49.88;102128.31;5262333;28;20216;-71
2022/06/11 11:07:41;;;;;;;13.32;3.42;;;;;;;21.25;50.45;102120.22;5261577;28;20075;-72
2022/06/11 11:10:34;;;;;;;12.18;3.85;;;;;;;21.31;51.55;102120.88;5272810;28;20091;-71
2022/06/11 11:13:32;;;;;;;11.95;4.10;;;;;;;21.47;51.55;102119.22;5261872;28;20067;-73
2022/06/11 11:16:13;;;;;;;11.30;3.50;;;;;;;21.43;51.20;102109.78;5273413;28;20028;-71
2022/06/11 11:18:53;;;;;;;18.77;8.20;;;;;;;21.33;52.19;102110.09;5261666;28;20425;-72
2022/06/11 11:21:35;;;;;;;18.13;5.35;;;;;;;21.42;53.54;102110.91;5273549;28;20029;-73
2022/06/11 11:24:16;;;;;;;12.27;6.55;;;;;;;21.42;54.28;102106.13;5262119;28;20021;-73
2022/06/11 11:26:56;;;;;;;11.05;4.22;;;;;;;21.58;54.24;102099.97;5262288;28;20108;-74
2022/06/11 11:29:31;;;;;;;17.38;4.28;;;;;;;21.93;51.88;102104.38;5261910;28;20414;-74
2022/06/11 11:32:23;;;;;;;10.93;5.10;;;;;;;21.71;51.42;102111.06;5268949;28;20032;-75
2022/06/11 11:34:55;;;;;;;17.50;5.40;;;;;;;21.81;51.31;102097.75;5282235;28;20017;-74
2022/06/11 11:37:31;;;;;;;16.25;6.40;;;;;;;21.90;52.64;102095.72;5276706;28;20098;-74
2022/06/11 11:40:32;;;;;;;13.10;4.88;;;;;;;21.89;51.25;102096.91;5269842;28;20020;-73
2022/06/11 11:43:09;;;;;;;13.43;5.70;;;;;;;22.08;51.25;102093.66;5269659;28;20116;-72
2022/06/11 11:45:59;;;;;;;11.88;4.70;;;;;;;22.02;50.90;102093.03;5282499;28;20137;-73
2022/06/11 11:48:48;;;;;;;12.55;5.20;;;;;;;21.93;51.41;102095.03;5277233;28;20021;-73
2022/06/11 11:51:38;;;;;;;19.88;10.93;;;;;;;21.96;51.88;102102.88;5261938;28;20377;-75
2022/06/11 11:54:19;;;;;;;11.32;4.80;;;;;;;22.11;51.83;102102.31;5264773;28;20027;-81
2022/06/11 11:56:57;;;;;;;13.00;4.75;;;;;;;21.98;51.58;102103.34;5282426;28;20513;-75
2022/06/11 11:59:43;;;;;;;14.70;5.05;;;;;;;21.92;51.58;102096.22;5281321;28;20043;-74
2022/06/11 12:02:24;;;;;;;13.85;4.93;;;;;;;21.72;51.57;102103.41;5280560;28;20025;-75
2022/06/11 12:04:57;;;;;;;15.35;5.63;;;;;;;21.82;52.99;102103.06;5282378;28;20151;-75
2022/06/11 12:07:38;;;;;;;13.05;5.05;;;;;;;21.67;51.77;102095.13;5280525;28;20103;-76
2022/06/11 12:10:31;;;;;;;13.63;4.75;;;;;;;21.83;52.17;102086.94;5279199;28;20098;-75
2022/06/11 12:13:27;;;;;;;13.73;5.10;;;;;;;21.89;53.87;102085.59;5263653;28;20028;-75
2022/06/11 12:16:03;;;;;;;11.73;4.95;;;;;;;21.84;52.59;102085.78;5249611;28;20106;-75
2022/06/11 12:18:45;;;;;;;12.32;4.50;;;;;;;21.88;53.42;102092.41;5261509;28;20021;-74
2022/06/11 12:21:22;;;;;;;10.13;4.63;;;;;;;21.86;52.06;102095.59;5278917;28;20033;-73
2022/06/11 12:24:03;;;;;;;15.77;4.85;;;;;;;21.92;52.75;102090.56;5281765;28;20541;-73
2022/06/11 12:26:41;;;;;;;13.18;4.95;;;;;;;21.76;52.14;102090.28;5281591;28;20424;-73
2022/06/11 12:29:27;;;;;;;14.15;4.28;;;;;;;21.77;53.65;102088.28;5269370;28;20025;-72
2022/06/11 12:32:00;;;;;;;;;;;;;;;21.83;53.03;102087.78;5261001;28;20175;-75
2022/06/11 12:34:31;;;;;;;12.65;5.10;;;;;;;21.77;53.72;102088.28;5260754;28;20296;-73
2022/06/11 12:37:39;;;;;;;17.48;10.73;;;;;;;21.76;52.73;102079.00;5260380;28;20025;-74
2022/06/11 12:40:16;;;;;;;20.13;15.40;;;;;;;21.88;52.56;102081.09;5243682;28;20095;-74
2022/06/11 12:43:18;;;;;;;12.00;4.65;;;;;;;21.74;52.97;102077.69;5261213;28;20032;-76
2022/06/11 12:46:14;;;;;;;12.77;5.10;;;;;;;21.91;52.50;102077.63;5259278;28;20044;-76
2022/06/11 12:48:54;;;;;;;12.48;5.90;;;;;;;21.88;52.76;102078.28;5265063;28;20033;-76
2022/06/11 12:51:50;;;;;;;9.32;3.60;;;;;;;22.00;52.84;102086.06;5285403;28;20527;-78
2022/06/11 12:54:57;;;;;;;14.48;3.90;;;;;;;22.03;51.24;102085.38;5285998;28;20103;-76
2022/06/11 12:57:28;;;;;;;;;;;;;;;22.13;51.99;102085.81;5277232;28;20381;-75
2022/06/11 13:00:11;;;;;;;9.13;3.10;;;;;;;22.19;51.58;102085.63;5264302;28;19924;-75
2022/06/11 13:03:13;;;;;;;9.70;3.85;;;;;;;22.11;50.96;102084.50;5265720;28;20114;-77
2022/06/11 13:06:03;;;;;;;10.93;4.90;;;;;;;22.11;51.57;102082.53;5253980;28;20025;-77
2022/06/11 13:08:43;;;;;;;8.25;3.25;;;;;;;22.20;51.43;102084.53;5264824;28;20055;-76
2022/06/11 13:11:27;;;;;;;9.82;4.18;;;;;;;22.24;51.48;102085.47;5268110;28;20052;-79
2022/06/11 13:14:15;;;;;;;12.82;3.35;;;;;;;22.62;51.13;102076.13;5285292;28;20077;-77
2022/06/11 13:16:55;;;;;;;10.38;2.92;;;;;;;22.73;49.93;102080.25;5275001;28;20029;-72
2022/06/11 13:19:47;;;;;;;9.73;3.72;;;;;;;23.20;49.27;102083.72;5272682;28;20023;-72
2022/06/11 13:22:26;;;;;;;8.15;3.30;;;;;;;22.74;48.55;102077.03;5306712;28;20103;-73
2022/06/11 13:25:17;;;;;;;9.57;2.97;;;;;;;23.11;50.16;102076.47;5306019;28;20031;-71
2022/06/11 13:28:17;;;;;;;13.20;4.00;;;;;;;22.93;49.04;102087.91;5304784;28;20024;-74
2022/06/11 13:30:55;;;;;;;9.63;3.88;;;;;;;22.87;49.39;102082.78;5284326;28;20035;-73
2022/06/11 13:33:33;;;;;;;8.75;3.38;;;;;;;22.72;50.33;102078.56;5280130;28;20021;-74
2022/06/11 13:36:27;;;;;;;9.65;3.55;;;;;;;22.84;49.31;102081.47;5271775;28;20036;-75
2022/06/11 13:39:39;;;;;;;7.45;3.47;;;;;;;22.86;48.93;102081.97;5279755;28;20056;-75
2022/06/11 13:42:33;;;;;;;9.00;3.35;;;;;;;22.67;48.70;102075.94;5282973;28;20029;-75
2022/06/11 13:45:13;;;;;;;6.97;2.95;;;;;;;23.11;47.98;102073.63;5284750;28;20021;-77
2022/06/11 13:48:17;;;;;;;4.90;2.47;;;;;;;23.26;46.72;102080.66;5279346;28;20024;-76
2022/06/11 13:51:14;;;;;;;5.97;2.83;;;;;;;23.50;46.42;102074.28;5284116;28;20028;-73
2022/06/11 13:57:08;;;;;;;8.93;2.67;;;;;;;23.27;46.75;102071.84;5263063;28;20037;-77
2022/06/11 13:59:51;;;;;;;10.38;3.22;;;;;;;23.28;46.60;102073.47;5278330;28;20353;-75
2022/06/11 14:02:47;;;;;;;7.78;3.13;;;;;;;23.13;46.59;102065.63;5268679;28;20044;-74
2022/06/11 14:05:40;;;;;;;12.68;5.55;;;;;;;23.28;46.54;102067.81;5270174;28;20029;-77
2022/06/11 14:08:15;;;;;;;5.15;2.70;;;;;;;23.55;46.53;102065.59;5266498;28;20123;-80
2022/06/11 14:10:48;;;;;;;;;;;;;;;23.93;46.42;102070.16;5270313;28;20387;-77
2022/06/11 14:13:53;;;;;;;8.30;3.00;;;;;;;24.04;47.28;102069.34;5284643;28;19918;-80
2022/06/11 14:16:46;;;;;;;7.95;3.03;;;;;;;23.82;45.75;102056.44;5283981;28;20032;-77
2022/06/11 14:19:17;;;;;;;5.95;2.78;;;;;;;23.26;46.01;102053.19;5286765;28;20100;-75
2022/06/11 14:21:52;;;;;;;5.70;2.93;;;;;;;23.33;47.65;102058.28;5282882;28;20028;-74
2022/06/11 14:24:41;;;;;;;10.27;3.87;;;;;;;23.22;47.79;102066.41;5283627;28;20294;-74
2022/06/11 14:27:34;;;;;;;9.77;4.90;;;;;;;23.50;47.82;102060.13;5274201;28;20340;-76
2022/06/11 14:30:11;;;;;;;10.55;4.50;;;;;;;23.73;48.56;102061.41;5262994;28;20521;-76
2022/06/11 14:32:58;;;;;;;11.27;4.43;;;;;;;23.68;47.57;102053.09;5263474;28;20112;-74
2022/06/11 14:35:38;;;;;;;9.90;4.47;;;;;;;23.60;47.86;102054.03;5262848;28;20032;-76
2022/06/11 14:38:30;;;;;;;8.65;3.80;;;;;;;23.57;47.97;102051.88;5262824;28;20029;-75
2022/06/11 14:41:10;;;;;;;6.20;2.47;;;;;;;23.53;45.92;102050.94;5277426;28;20491;-78
2022/06/11 14:43:54;;;;;;;6.95;2.80;;;;;;;23.56;45.97;102055.91;5283723;28;20391;-75
2022/06/11 14:46:31;;;;;;;9.85;4.30;;;;;;;23.71;45.58;102046.72;5283664;28;20056;-71
2022/06/11 14:49:37;;;;;;;9.25;3.10;;;;;;;23.91;46.29;102045.03;5303556;28;20087;-72
2022/06/11 14:52:22;;;;;;;11.00;3.53;;;;;;;24.03;45.51;102038.53;5304295;28;20111;-72
2022/06/11 14:55:07;;;;;;;7.97;3.63;;;;;;;23.74;45.54;102043.22;5288432;28;20444;-72
2022/06/11 14:57:57;;;;;;;8.23;3.40;;;;;;;23.79;44.77;102031.66;5262501;28;20049;-74
2022/06/11 15:00:51;;;;;;;6.60;2.85;;;;;;;23.95;45.41;102040.28;5261879;28;20088;-69
2022/06/11 15:03:38;;;;;;;9.45;2.63;;;;;;;23.97;44.36;102048.47;5262982;28;20419;-71
2022/06/11 15:06:30;;;;;;;7.30;3.72;;;;;;;23.97;43.64;102043.59;5261862;28;20472;-72
2022/06/11 15:09:23;;;;;;;7.80;2.92;;;;;;;23.97;43.88;102048.47;5264363;28;20108;-71
2022/06/11 15:12:10;;;;;;;7.00;2.70;;;;;;;24.02;43.07;102043.38;5273233;28;20035;-70
2022/06/11 15:14:41;;;;;;;6.80;2.47;;;;;;;23.51;43.79;102039.13;5282867;28;20054;-72
2022/06/11 15:17:24;;;;;;;7.35;2.78;;;;;;;23.53;44.15;102037.59;5262000;28;20545;-72
2022/06/11 15:19:57;;;;;;;6.50;2.55;;;;;;;23.55;44.89;102043.75;5278071;28;20027;-72
2022/06/11 15:22:40;;;;;;;11.73;3.40;;;;;;;23.60;44.55;102037.03;5273529;28;20009;-72
2022/06/11 15:25:16;;;;;;;9.73;3.22;;;;;;;23.46;44.75;102034.50;5262478;28;20408;-72
2022/06/11 15:27:54;;;;;;;7.30;2.90;;;;;;;23.54;44.40;102039.25;5277145;28;20050;-73
2022/06/11 15:30:29;;;;;;;7.07;2.70;;;;;;;23.77;45.28;102033.19;5282651;28;20020;-71
2022/06/11 15:33:13;;;;;;;13.68;7.43;;;;;;;24.05;45.21;102030.50;5268542;28;20098;-71
2022/06/11 15:35:50;;;;;;;11.13;2.92;;;;;;;23.96;44.89;102035.47;5265102;28;20029;-67
2022/06/11 15:38:46;;;;;;;7.05;3.00;;;;;;;24.02;44.77;102042.56;5285054;28;20459;-68
2022/06/11 15:41:26;;;;;;;;;;;;;;;24.07;43.67;102037.47;5282013;28;20124;-80
2022/06/11 15:44:16;;;;;;;5.85;2.58;;;;;;;23.80;43.73;102038.16;5262192;28;20368;-80
2022/06/11 15:47:06;;;;;;;7.63;3.13;;;;;;;23.91;43.88;102033.69;5262492;28;20033;-77
2022/06/11 15:49:50;;;;;;;8.50;4.43;;;;;;;24.06;43.30;102035.03;5269535;28;20032;-77
2022/06/11 15:52:21;;;;;;;7.15;3.05;;;;;;;23.99;43.79;102037.59;5293617;28;20025;-77
2022/06/11 15:55:12;;;;;;;9.43;3.30;;;;;;;24.34;44.20;102035.13;5261691;28;20491;-79
2022/06/11 15:57:48;;;;;;;11.20;5.47;;;;;;;24.24;43.71;102039.25;5261446;28;20064;-79
2022/06/11 16:00:38;;;;;;;11.70;5.03;;;;;;;24.25;43.12;102040.91;5263391;28;20025;-78
2022/06/11 16:03:21;;;;;;;9.05;3.92;;;;;;;24.24;43.77;102042.09;5274866;28;20371;-77
2022/06/11 16:06:07;;;;;;;8.48;3.60;;;;;;;24.14;44.00;102025.56;5265568;28;20484;-78
2022/06/11 16:08:55;;;;;;;9.88;4.03;;;;;;;24.37;42.54;102025.09;5272776;28;20180;-78
2022/06/11 16:11:45;;;;;;;8.23;3.28;;;;;;;24.27;43.79;102026.38;5272703;28;20020;-78
2022/06/11 16:14:24;;;;;;;9.52;3.22;;;;;;;23.95;43.85;102023.28;5292437;28;20028;-76
2022/06/11 16:17:19;;;;;;;8.68;3.05;;;;;;;24.06;43.69;102023.69;5282065;28;20017;-76
2022/06/11 16:20:02;;;;;;;9.02;3.42;;;;;;;24.41;43.54;102028.84;5278582;28;20230;-78
2022/06/11 16:22:41;;;;;;;9.07;3.55;;;;;;;24.46;43.63;102025.78;5265817;28;20044;-79
2022/06/11 16:25:18;;;;;;;10.93;4.63;;;;;;;24.45;43.41;102024.97;5266376;28;20021;-76
2022/06/11 16:27:50;;;;;;;6.75;3.33;;;;;;;24.41;42.94;102021.16;5267442;28;20055;-76
2022/06/11 16:30:30;;;;;;;8.65;3.22;;;;;;;24.31;43.43;102021.63;5275035;28;20021;-76
2022/06/11 16:33:06;;;;;;;7.80;2.80;;;;;;;24.58;42.56;102020.13;5274976;28;20060;-80
2022/06/11 16:35:49;;;;;;;12.10;3.67;;;;;;;24.51;42.91;102022.72;5266654;28;20044;-81
2022/06/11 16:38:27;;;;;;;7.38;3.30;;;;;;;24.67;42.49;102015.16;5267296;28;20123;-80
2022/06/11 16:41:09;;;;;;;8.65;3.45;;;;;;;24.64;42.82;102020.69;5274552;28;20083;-82
2022/06/11 16:43:48;;;;;;;8.55;3.42;;;;;;;24.66;43.09;102024.81;5272295;28;20055;-80
2022/06/11 16:46:25;;;;;;;10.70;3.67;;;;;;;24.58;43.44;102027.81;5265544;28;20429;-81
2022/06/11 16:48:57;;;;;;;8.52;3.95;;;;;;;24.50;43.67;102023.91;5265436;28;20024;-78
2022/06/11 16:57:17;;;;;;;8.30;3.45;;;;;;;24.85;42.44;102026.19;5287169;28;20052;-80
2022/06/11 16:59:49;;;;;;;7.18;3.88;;;;;;;24.96;41.93;102027.34;5282956;28;20021;-78
2022/06/11 17:05:13;;;;;;;8.98;3.20;;;;;;;24.61;42.74;102024.25;5285617;28;20488;-81
2022/06/11 17:07:50;;;;;;;6.35;3.15;;;;;;;24.63;43.28;102025.53;5267774;28;20021;-79
2022/06/11 17:10:41;;;;;;;12.82;4.65;;;;;;;24.29;43.29;102024.84;5271211;28;20341;-78
2022/06/11 17:13:30;;;;;;;9.40;4.13;;;;;;;24.19;43.87;102033.00;5277275;28;20027;-73
2022/06/11 17:16:12;;;;;;;10.32;3.25;;;;;;;24.00;44.45;102030.75;5271822;28;20063;-77
2022/06/11 17:18:59;;;;;;;8.98;3.22;;;;;;;24.34;43.69;102037.13;5274909;28;20564;-78
2022/06/11 17:21:40;;;;;;;7.68;3.28;;;;;;;24.56;43.80;102030.16;5276587;28;20146;-77
2022/06/11 17:24:23;;;;;;;12.50;4.20;;;;;;;24.72;43.37;102028.22;5265283;28;20033;-80
2022/06/11 17:27:07;;;;;;;9.10;3.53;;;;;;;24.77;43.20;102030.00;5291245;28;20040;-78
2022/06/11 17:29:39;;;;;;;12.02;3.22;;;;;;;24.67;42.86;102037.84;5275679;28;20071;-79
